Tiempo atmosférico en la estación meteorológica de Sopeira, Huesca (760 m.)



Fecha
DESCASC
Temp. máxima en grados centígrados (hora)
DESCASC
Temp. mínima en grados centígrados (hora)
DESCASC
Temp. media en grados centígrados
DESCASC
Racha de viento máxima en m/sg (hora)
DESCASC
Velocidad máxima media en intervalos de 10 minutos(hora)
DESCASC
Precipitaciones diarias en mm
DESCASC
Precipitaciones de 00:00 a 06:00 en mm
DESCASC
Precipitaciones de 06:00 a 12:00 en mm
DESCASC
Precipitaciones de 12:00 a 18:00 en mm
DESCASC
Precipitaciones de 18:00 a 24:00 en mm
DESCASC
18-08-2019 34.6 (15:20) 17.7 (08:00) 26.1 11.39 (05:30) 8.33 (03:10) 0 0 0 0 0
17-08-2019 34.3 (15:00) 15.6 (06:50) 24.9 14.72 (08:20) 10.83 (07:10) 0 0 0 0 0
16-08-2019 31.4 (16:40) 13.8 (08:00) 22.6 11.39 (05:40) 8.61 (03:40) 0 0 0 0 0
15-08-2019 30.1 (15:30) 14.7 (00:00) 22.4 12.5 (05:20) 9.72 (05:20) 0 0 0 0 0
14-08-2019 29.6 (18:30) 12.2 (00:00) 20.9 12.5 (06:00) 9.17 (07:10) 0 0 0 0 0
13-08-2019 25.6 (16:20) 13.8 (00:00) 19.7 11.39 (05:30) 7.78 (03:40) 0 0 0 0 0
12-08-2019 27.3 (14:40) 17.6 (00:00) 22.4 10.28 (23:20) 6.39 (05:00) 0 0 0 0 0
11-08-2019 29.5 (18:00) 21.7 (00:00) 25.6 8.06 (01:10) 5 (01:00) 0 0 0 0 0
10-08-2019 31.9 (15:30) 19.5 (00:00) 25.7 9.44 (16:30) 5.28 (23:10) 0 0 0 0 0
09-08-2019 34.5 (15:40) 18.5 (00:00) 26.5 13.06 (05:40) 9.72 (04:10) 0 0 0 0 0
08-08-2019 32 (17:10) 17.6 (00:00) 24.8 10.83 (04:50) 7.5 (04:50) 0 0 0 0 0
07-08-2019 30.8 (13:40) 18.5 (00:00) 24.6 14.17 (15:20) 8.89 (01:20) 7.8 0 0 6 1.8
06-08-2019 34.2 (15:50) 18.2 (00:00) 26.2 11.94 (07:30) 8.61 (07:20) 0 0 0 0 0
05-08-2019 34.5 (16:10) 18.3 (00:00) 26.4 11.39 (08:10) 8.33 (05:30) 0 0 0 0 0
04-08-2019 34.9 (16:00) 17.8 (00:00) 26.4 12.78 (05:40) 9.17 (05:30) 0 0 0 0 0
03-08-2019 33.6 (15:40) 16.1 (00:00) 24.8 12.22 (07:40) 9.44 (07:30) 0 0 0 0 0
02-08-2019 31.7 (15:40) 16.6 (00:00) 24.2 10.56 (06:10) 7.78 (05:40) 0.6 0.6 0 0 0
01-08-2019 31.5 (16:50) 17.2 (00:00) 24.4 12.5 (07:50) 9.17 (08:10) 0 0 0 0 0
31-07-2019 29.5 (15:50) 12.9 (00:00) 21.2 12.22 (05:10) 9.17 (05:40) 0 0 0 0 0
30-07-2019 28.3 (17:10) 16.7 (00:00) 22.5 11.11 (03:40) 8.33 (01:50) 0 0 0 0 0
29-07-2019 30.4 (15:50) 12.5 (00:00) 21.4 11.94 (06:10) 9.72 (06:10) 0 0 0 0 0
28-07-2019 27.2 (15:50) 12.1 (00:00) 19.7 13.89 (03:10) 5.83 (02:50) 0 0 0 0 0
27-07-2019 22.5 (18:30) 14.8 (00:00) 18.7 12.5 (19:50) 7.22 (01:10) 43 0 43 0 0
26-07-2019 29 (12:40) 19.3 (00:00) 24.1 12.78 (08:20) 9.17 (05:30) 0.2 0 0 0.2 0
25-07-2019 36.1 (15:50) 18.5 (00:00) 27.3 13.33 (04:00) 10 (05:30) 0 0 0 0 0
24-07-2019 37.4 (14:30) 18.7 (00:00) 28.1 15 (06:40) 11.94 (06:50) 0 0 0 0 0
23-07-2019 37.5 (14:00) 18.4 (00:00) 27.9 15.28 (07:30) 11.39 (07:00) 0 0 0 0 0
22-07-2019 36.6 (16:20) 19 (00:00) 27.8 13.33 (07:20) 10 (07:00) 0 0 0 0 0
21-07-2019 34.8 (16:40) 18.9 (00:00) 26.8 11.67 (08:10) 8.33 (08:10) 0 0 0 0 0

Gráficas

Temp. máximas Temp. mínimas Temp. medias Precipitaciones Rachas de viento máximas Velocidades máximas media en intervalos de 10 minutos

Datos horarios

Fecha y hora oficial Temperatura (ºC) Velocidad del viento (km/h) Dirección del viento Racha (km/h) Dirección de racha Precipitación (mm) Presión (hPa) Tendencia (hPa) Humedad (%)
2019-08-19 23:00:00 19.8 17 Norte 44 Noroeste 0.4 -- -- 67
2019-08-19 22:00:00 24.4 8 Noroeste 29 Noroeste 0 -- -- 54
2019-08-19 21:00:00 24.9 2 Sudeste 12 Sur 0 -- -- 55
2019-08-19 20:00:00 25.7 6 Sur 12 Sur 0 -- -- 52
2019-08-19 19:00:00 26.4 7 Sur 15 Sur 0 -- -- 49
2019-08-19 18:00:00 26.7 7 Sur 18 Sur 0 -- -- 48
2019-08-19 17:00:00 27.1 12 Sur 23 Sur 0 -- -- 48
2019-08-19 16:00:00 28.2 6 Sudeste 23 Sur 0 -- -- 48
2019-08-19 15:00:00 26.6 6 Sudeste 23 Sur 0 -- -- 52
2019-08-19 14:00:00 25.4 10 Sur 23 Sur 0 -- -- 58
2019-08-19 13:00:00 23.6 17 Sudoeste 24 Sur 0 -- -- 63
2019-08-19 12:00:00 23.1 4 Sudeste 13 Sur 0 -- -- 63
2019-08-19 11:00:00 22.5 5 Sur 8 Sur 0 -- -- 62
2019-08-19 10:00:00 20.9 0 Calma 14 Noroeste -- -- -- 63
2019-08-19 09:00:00 19.7 11 Noroeste 21 Noroeste 0 -- -- 63
2019-08-19 08:00:00 19.1 14 Noroeste 22 Noroeste 0 -- -- 67
2019-08-19 07:00:00 19.3 14 Noroeste 22 Noroeste 0 -- -- 67
2019-08-19 06:00:00 19.8 12 Noroeste 22 Noroeste 0 -- -- 64
2019-08-19 05:00:00 20.4 15 Noroeste 23 Noroeste 0 -- -- 63
2019-08-19 04:00:00 21.2 13 Noroeste 19 Noroeste 0 -- -- 61
2019-08-19 03:00:00 22.2 10 Noroeste 16 Noroeste 0 -- -- 58
2019-08-19 02:00:00 22.9 9 Noroeste 16 Noroeste 0 -- -- 54
2019-08-19 01:00:00 24.1 3 Noroeste 18 Noroeste 0 -- -- 47
2019-08-19 00:00:00 24.9 11 Noroeste 20 Oeste 0 -- -- 44
2019-08-18 23:00:00 26.3 5 Sur 15 Noroeste 0 -- -- 41
2019-08-18 22:00:00 27.6 10 Noroeste 14 Noroeste 0 -- -- 37
2019-08-18 21:00:00 29.5 5 Sudeste 15 Nordeste 0 -- -- 31
2019-08-18 20:00:00 31.1 6 Sur 22 Sudoeste 0 -- -- 26
2019-08-18 19:00:00 32.7 6 Sur 22 Sur 0 -- -- 25
2019-08-18 18:00:00 32.7 7 Sur 28 Sur 0 -- -- 24
2019-08-18 17:00:00 33.2 14 Sur 27 Sur 0 -- -- 21
2019-08-18 16:00:00 34.2 14 Sur 35 Sudoeste 0 -- -- 20
2019-08-18 15:00:00 34 11 Sudeste 24 Norte 0 -- -- 24
2019-08-18 14:00:00 33.3 13 Sur 26 Sur 0 -- -- 32
2019-08-18 13:00:00 30.9 10 Sur 18 Sur 0 -- -- 36
2019-08-18 12:00:00 30.4 8 Sur 14 Sur 0 -- -- 40
2019-08-18 11:00:00 27 5 Sudeste 15 Noroeste 0 -- -- 50
2019-08-18 10:00:00 22.1 8 Norte 32 Noroeste 0 -- -- 60
2019-08-18 09:00:00 19.2 20 Noroeste 38 Noroeste 0 -- -- 69
2019-08-18 08:00:00 17.7 25 Noroeste 37 Noroeste 0 -- -- 75
2019-08-18 07:00:00 18.3 20 Noroeste 34 Oeste 0 -- -- 73
2019-08-18 06:00:00 18.7 27 Noroeste 41 Noroeste 0 -- -- 71
2019-08-18 05:00:00 19.1 24 Noroeste 39 Noroeste 0 -- -- 70
2019-08-18 04:00:00 20.1 26 Noroeste 39 Noroeste 0 -- -- 64
2019-08-18 03:00:00 20.8 29 Noroeste 38 Noroeste 0 -- -- 62
2019-08-18 02:00:00 22 22 Noroeste 33 Noroeste 0 -- -- 57
2019-08-18 01:00:00 23 21 Noroeste 32 Noroeste 0 -- -- 54
2019-08-18 00:00:00 23.8 16 Noroeste 24 Noroeste 0 -- -- 54
2019-08-17 23:00:00 25.5 8 Noroeste 12 Noroeste 0 -- -- 51
2019-08-17 22:00:00 27.9 6 Sudoeste 10 Sudoeste 0 -- -- 47
2019-08-17 21:00:00 29.3 5 Sudeste 15 Sur 0 -- -- 41
2019-08-17 20:00:00 30.9 10 Sur 24 Sur 0 -- -- 34
2019-08-17 19:00:00 32.1 14 Sur 27 Sur 0 -- -- 31
2019-08-17 18:00:00 33.2 14 Sur 31 Sudoeste 0 -- -- 30
2019-08-17 17:00:00 33.6 13 Sur 33 Sur 0 -- -- 29
2019-08-17 16:00:00 32.9 10 Norte 27 Sur 0 -- -- 28
2019-08-17 15:00:00 34.3 9 Sudeste 18 Sudoeste 0 -- -- 26
2019-08-17 14:00:00 32.5 8 Sur 15 Sudoeste 0 -- -- 27
2019-08-17 13:00:00 31.1 8 Sur 15 Sur 0 -- -- 28
2019-08-17 12:00:00 30.1 5 Sudeste 17 Noroeste 0 -- -- 30
2019-08-17 11:00:00 23.7 8 Noroeste 32 Noroeste 0 -- -- 40
2019-08-17 10:00:00 19.9 26 Noroeste 43 Noroeste 0 -- -- 49
2019-08-17 09:00:00 17.4 31 Noroeste 53 Noroeste 0 -- -- 55
2019-08-17 08:00:00 16 33 Noroeste 52 Noroeste 0 -- -- 60
2019-08-17 07:00:00 15.8 37 Noroeste 48 Noroeste 0 -- -- 62
2019-08-17 06:00:00 16.3 33 Noroeste 46 Noroeste 0 -- -- 60
2019-08-17 05:00:00 17 34 Noroeste 46 Noroeste 0 -- -- 57
2019-08-17 04:00:00 17.4 32 Noroeste 42 Noroeste 0 -- -- 56
2019-08-17 03:00:00 18.2 30 Noroeste 40 Noroeste 0 -- -- 55
2019-08-17 02:00:00 19.1 26 Noroeste 37 Noroeste 0 -- -- 51
2019-08-17 01:00:00 20 19 Noroeste 28 Noroeste 0 -- -- 48
2019-08-17 00:00:00 21.4 18 Noroeste 27 Noroeste 0 -- -- 46
2019-08-16 23:00:00 23.1 18 Noroeste 26 Noroeste 0 -- -- 40
2019-08-16 22:00:00 25 10 Noroeste 24 Noroeste 0 -- -- 35
2019-08-16 21:00:00 26.5 5 Este 8 Este 0 -- -- 31
2019-08-16 20:00:00 28.3 5 Sur 15 Sur 0 -- -- 27
2019-08-16 19:00:00 29.9 9 Sur 19 Sudoeste 0 -- -- 23
2019-08-16 18:00:00 30.8 10 Sur 25 Sudoeste 0 -- -- 19
2019-08-16 17:00:00 31.1 12 Sur 30 Sudoeste 0 -- -- 19
2019-08-16 16:00:00 31 13 Sur 27 Sudoeste 0 -- -- 24
2019-08-16 15:00:00 30.3 13 Sur 28 Sudoeste 0 -- -- 25
2019-08-16 14:00:00 29.6 15 Sur 29 Sur 0 -- -- 27
2019-08-16 13:00:00 29 10 Este 17 Nordeste 0 -- -- 32
2019-08-16 12:00:00 27 9 Sur 16 Sur 0 -- -- 35
2019-08-16 11:00:00 23.2 5 Nordeste 19 Noroeste 0 -- -- 49
2019-08-16 10:00:00 17.9 15 Noroeste 31 Noroeste 0 -- -- 58
2019-08-16 09:00:00 15.5 24 Noroeste 38 Noroeste 0 -- -- 64
2019-08-16 08:00:00 13.8 30 Noroeste 41 Noroeste 0 -- -- 71
2019-08-16 07:00:00 14.1 30 Noroeste 40 Noroeste 0 -- -- 71
2019-08-16 06:00:00 14.8 28 Noroeste 41 Noroeste 0 -- -- 68
2019-08-16 05:00:00 15.3 30 Noroeste 36 Noroeste 0 -- -- 67
2019-08-16 04:00:00 16.2 26 Noroeste 40 Noroeste 0 -- -- 61
2019-08-16 03:00:00 17.1 29 Noroeste 39 Noroeste 0 -- -- 59
2019-08-16 02:00:00 18.1 22 Noroeste 34 Noroeste 0 -- -- 57
2019-08-16 01:00:00 19.5 19 Noroeste 31 Noroeste 0 -- -- 53
2019-08-16 00:00:00 20.8 19 Noroeste 31 Noroeste 0 -- -- 49
2019-08-15 23:00:00 22.8 18 Noroeste 24 Noroeste 0 -- -- 41
2019-08-15 22:00:00 25.1 5 Sudoeste 12 Sudoeste 0 -- -- 34
2019-08-15 21:00:00 26.3 4 Sur 17 Sur 0 -- -- 31
2019-08-15 20:00:00 27.3 9 Sur 24 Sur 0 -- -- 30
2019-08-15 19:00:00 28.9 14 Sur 27 Sur 0 -- -- 29
2019-08-15 18:00:00 29.5 17 Sur 32 Sur 0 -- -- 32
2019-08-15 17:00:00 29.7 12 Sur 33 Sur 0 -- -- 37
2019-08-15 16:00:00 29.8 13 Sudeste 27 Sudoeste 0 -- -- 37
2019-08-15 15:00:00 29.9 14 Sur 30 Sur 0 -- -- 35
2019-08-15 14:00:00 29.5 12 Sur 36 Sur 0 -- -- 37
2019-08-15 13:00:00 28.4 12 Sur 23 Sudoeste 0 -- -- 42
2019-08-15 12:00:00 26.5 6 Sur 17 Sur 0 -- -- 44
2019-08-15 11:00:00 24.6 8 Sur 13 Sur 0 -- -- 47
2019-08-15 10:00:00 19.2 6 Noroeste 28 Noroeste 0 -- -- 55
2019-08-15 09:00:00 16.4 14 Noroeste 38 Noroeste 0 -- -- 63
2019-08-15 08:00:00 14.7 22 Noroeste 39 Noroeste 0 -- -- 69
2019-08-15 07:00:00 15.1 23 Noroeste 41 Noroeste 0 -- -- 69
2019-08-15 06:00:00 15.6 25 Noroeste 45 Noroeste 0 -- -- 66
2019-08-15 05:00:00 16.2 32 Noroeste 44 Noroeste 0 -- -- 63
2019-08-15 04:00:00 16.9 26 Noroeste 36 Noroeste 0 -- -- 62
2019-08-15 03:00:00 17.9 26 Noroeste 37 Noroeste 0 -- -- 58
2019-08-15 02:00:00 18.8 26 Noroeste 35 Noroeste 0 -- -- 55
2019-08-15 01:00:00 20 24 Noroeste 33 Noroeste 0 -- -- 52
2019-08-15 00:00:00 21.7 19 Noroeste 30 Noroeste 0 -- -- 46
2019-08-14 23:00:00 23 18 Noroeste 28 Noroeste 0 -- -- 42
2019-08-14 22:00:00 25.7 3 Sur 11 Sudeste 0 -- -- 34
2019-08-14 21:00:00 26.5 5 Sur 20 Sur 0 -- -- 33
2019-08-14 20:00:00 27.5 12 Sur 37 Sur 0 -- -- 30
2019-08-14 19:00:00 29.1 11 Sur 27 Sur 0 -- -- 26
2019-08-14 18:00:00 29.2 9 Sudeste 26 Sur 0 -- -- 26
2019-08-14 17:00:00 29.4 13 Sur 27 Sur 0 -- -- 27
2019-08-14 16:00:00 29.2 14 Sur 30 Sudoeste 0 -- -- 27
2019-08-14 15:00:00 29.1 15 Sur 28 Sur 0 -- -- 27
2019-08-14 14:00:00 28.1 10 Este 25 Sudoeste 0 -- -- 30
2019-08-14 13:00:00 26.3 8 Sudeste 18 Sur 0 -- -- 33
2019-08-14 12:00:00 24.5 10 Sur 18 Sur 0 -- -- 37
2019-08-14 11:00:00 21.5 9 Sur 13 Sur 0 -- -- 44
2019-08-14 10:00:00 16.7 8 Noroeste 30 Noroeste 0 -- -- 57
2019-08-14 09:00:00 13.8 21 Noroeste 37 Noroeste 0 -- -- 66
2019-08-14 08:00:00 12.3 23 Noroeste 42 Noroeste 0 -- -- 73
2019-08-14 07:00:00 12.7 30 Noroeste 42 Noroeste 0 -- -- 70
2019-08-14 06:00:00 12.9 30 Noroeste 45 Noroeste 0 -- -- 70
2019-08-14 05:00:00 13.6 29 Noroeste 41 Noroeste 0 -- -- 68
2019-08-14 04:00:00 14.3 30 Noroeste 41 Noroeste 0 -- -- 65
2019-08-14 03:00:00 15.3 28 Noroeste 42 Noroeste 0 -- -- 61
2019-08-14 02:00:00 16.1 27 Noroeste 40 Noroeste 0 -- -- 57
2019-08-14 01:00:00 16.9 26 Noroeste 38 Noroeste 0 -- -- 55
2019-08-14 00:00:00 18.4 22 Noroeste 30 Noroeste 0 -- -- 50
2019-08-13 23:00:00 19.7 14 Noroeste 20 Noroeste 0 -- -- 48
2019-08-13 22:00:00 21.1 3 Sudeste 16 Sur 0 -- -- 41
2019-08-13 21:00:00 22.3 9 Sur 21 Sudoeste 0 -- -- 37
2019-08-13 20:00:00 23.3 9 Sur 20 Sudoeste 0 -- -- 35
2019-08-13 19:00:00 24.7 13 Sur 25 Sur 0 -- -- 34
2019-08-13 18:00:00 24.9 15 Sur 32 Sur 0 -- -- 36
2019-08-13 17:00:00 25.2 9 Sudoeste 27 Sudoeste 0 -- -- 34
2019-08-13 16:00:00 25.2 10 Sur 29 Sudoeste 0 -- -- 32
2019-08-13 15:00:00 25 14 Sur 29 Sur 0 -- -- 34
2019-08-13 14:00:00 23.9 19 Sur 28 Sur 0 -- -- 38
2019-08-13 13:00:00 23 16 Sur 28 Sur 0 -- -- 40
2019-08-13 12:00:00 22 9 Sudeste 15 Este 0 -- -- 42
2019-08-13 11:00:00 19.1 6 Sur 11 Sur 0 -- -- 50
2019-08-13 10:00:00 18.1 5 Sur 14 Noroeste 0 -- -- 54
2019-08-13 09:00:00 14.9 10 Noroeste 22 Noroeste 0 -- -- 64
2019-08-13 08:00:00 13.8 15 Noroeste 28 Noroeste 0 -- -- 67
2019-08-13 07:00:00 13.9 21 Noroeste 35 Noroeste 0 -- -- 65
2019-08-13 06:00:00 14 27 Noroeste 41 Oeste 0 -- -- 65
2019-08-13 05:00:00 14.3 26 Noroeste 36 Noroeste 0 -- -- 64
2019-08-13 04:00:00 15 26 Noroeste 38 Noroeste 0 -- -- 62
2019-08-13 03:00:00 16.2 20 Noroeste 32 Noroeste 0 -- -- 54
2019-08-13 02:00:00 17.1 17 Norte 31 Norte 0 -- -- 53
2019-08-13 01:00:00 17.8 20 Norte 32 Noroeste 0 -- -- 50
2019-08-13 00:00:00 18.4 18 Norte 37 Noroeste 0 -- -- 50
2019-08-12 23:00:00 19.3 17 Norte 32 Noroeste 0 -- -- 46
2019-08-12 22:00:00 20.2 13 Norte 28 Noroeste 0 -- -- 43
2019-08-12 21:00:00 21.6 12 Noroeste 28 Noroeste 0 -- -- 40
2019-08-12 20:00:00 23.6 13 Oeste 24 Sur 0 -- -- 34
2019-08-12 19:00:00 25.6 10 Sur 26 Sur 0 -- -- 27
2019-08-12 18:00:00 26.3 6 Este 29 Sur 0 -- -- 29
2019-08-12 17:00:00 25.4 9 Sudoeste 28 Sudoeste 0 -- -- 30
2019-08-12 16:00:00 26.9 17 Sur 33 Sur 0 -- -- 30
2019-08-12 15:00:00 26.5 17 Sur 35 Sudoeste 0 -- -- 33
2019-08-12 14:00:00 27.1 10 Sur 25 Sur 0 -- -- 36
2019-08-12 13:00:00 25.7 12 Sur 27 Sur 0 -- -- 41
2019-08-12 12:00:00 23.7 9 Sur 19 Sudoeste 0 -- -- 49
2019-08-12 11:00:00 23.7 8 Sur 17 Sur 0 -- -- 55
2019-08-12 10:00:00 19.6 5 Noroeste 16 Noroeste 0 -- -- 71
2019-08-12 09:00:00 17.9 13 Noroeste 27 Noroeste 0 -- -- 76
2019-08-12 08:00:00 18 17 Noroeste 30 Noroeste 0 -- -- 74
2019-08-12 07:00:00 18.3 18 Noroeste 30 Noroeste 0 -- -- 72
2019-08-12 06:00:00 18.7 20 Noroeste 32 Noroeste 0 -- -- 69
2019-08-12 05:00:00 19.1 23 Noroeste 32 Noroeste 0 -- -- 66
2019-08-12 04:00:00 19.8 20 Noroeste 34 Noroeste 0 -- -- 61
2019-08-12 03:00:00 20.8 21 Noroeste 33 Noroeste 0 -- -- 54
2019-08-12 02:00:00 21.7 6 Noroeste 23 Noroeste 0 -- -- 51
2019-08-12 01:00:00 21.9 15 Noroeste 24 Noroeste 0 -- -- 50
2019-08-12 00:00:00 23 11 Noroeste 18 Noroeste 0 -- -- 45
2019-08-11 23:00:00 23.8 10 Noroeste 15 Noroeste 0 -- -- 43
2019-08-11 22:00:00 25.2 4 Noroeste 12 Este 0 -- -- 37
2019-08-11 21:00:00 26.8 0 Calma 13 Sur 0 -- -- 33
2019-08-11 20:00:00 27.6 8 Sur 18 Sur 0 -- -- 34
2019-08-11 19:00:00 28.4 10 Sur 21 Sur 0 -- -- 31
2019-08-11 18:00:00 29.5 13 Sur 26 Sudoeste 0 -- -- 33
2019-08-11 17:00:00 29.1 13 Sur 24 Sudoeste 0 -- -- 40
2019-08-11 16:00:00 29.1 12 Sur 28 Sur 0 -- -- 42
2019-08-11 15:00:00 27.5 9 Sur 19 Sur 0 -- -- 51
2019-08-11 14:00:00 27.2 8 Sur 23 Sur 0 -- -- 54
2019-08-11 13:00:00 26.3 7 Sur 19 Sur 0 -- -- 55
2019-08-11 12:00:00 25.8 9 Sur 20 Sur 0 -- -- 53
2019-08-11 11:00:00 23.9 11 Sur 20 Sur 0 -- -- 61
2019-08-11 10:00:00 23.7 11 Sur 16 Sur 0 -- -- 64
2019-08-11 09:00:00 23.1 5 Sur 8 Sudoeste 0 -- -- 69
2019-08-11 08:00:00 22.3 0 Calma 6 Sur 0 -- -- 70
2019-08-11 07:00:00 22.4 3 Sur 7 Sudeste 0 -- -- 68
2019-08-11 06:00:00 22.2 6 Sur 12 Sudoeste 0 -- -- 67
2019-08-11 05:00:00 21.8 6 Noroeste 15 Noroeste 0 -- -- 62
2019-08-11 04:00:00 21.8 9 Noroeste 19 Noroeste 0 -- -- 60
2019-08-11 03:00:00 22 11 Noroeste 23 Noroeste 0 -- -- 58
2019-08-11 02:00:00 22.3 13 Noroeste 29 Noroeste 0 -- -- 56
2019-08-11 01:00:00 22.6 18 Noroeste 28 Noroeste 0 -- -- 53
2019-08-11 00:00:00 23.3 18 Noroeste 30 Noroeste 0 -- -- 50
2019-08-10 23:00:00 24.8 17 Noroeste 25 Noroeste 0 -- -- 46
2019-08-10 22:00:00 26 13 Noroeste 18 Noroeste 0 -- -- 42
2019-08-10 21:00:00 27.6 7 Este 14 Sudoeste 0 -- -- 38
2019-08-10 20:00:00 28.7 4 Sudeste 21 Sur 0 -- -- 34
2019-08-10 19:00:00 29.6 9 Sur 23 Sudoeste 0 -- -- 31
2019-08-10 18:00:00 30.8 8 Sur 25 Sur 0 -- -- 28
2019-08-10 17:00:00 30.7 12 Sur 34 Sur 0 -- -- 29
2019-08-10 16:00:00 31.6 7 Sur 29 Sur 0 -- -- 30
2019-08-10 15:00:00 31.5 11 Sudeste 26 Sur 0 -- -- 31
2019-08-10 14:00:00 31.2 9 Sur 21 Sudoeste 0 -- -- 29
2019-08-10 13:00:00 30.1 11 Sur 26 Sudoeste 0 -- -- 33
2019-08-10 12:00:00 29.7 6 Sur 21 Sudoeste 0 -- -- 39
2019-08-10 11:00:00 28.2 9 Sur 16 Sur 0 -- -- 45
2019-08-10 10:00:00 25.9 8 Sur 13 Sur 0 -- -- 54
2019-08-10 09:00:00 21.3 13 Noroeste 23 Noroeste 0 -- -- 69
2019-08-10 08:00:00 19.5 14 Noroeste 26 Noroeste 0 -- -- 76
2019-08-10 07:00:00 19.8 16 Noroeste 26 Noroeste 0 -- -- 73
2019-08-10 06:00:00 20.4 12 Noroeste 21 Noroeste 0 -- -- 71
2019-08-10 05:00:00 21 10 Noroeste 17 Oeste 0 -- -- 68
2019-08-10 04:00:00 21.8 10 Noroeste 19 Noroeste 0 -- -- 65
2019-08-10 03:00:00 22.6 5 Noroeste 21 Noroeste 0 -- -- 60
2019-08-10 02:00:00 23.2 13 Noroeste 25 Noroeste 0 -- -- 58
2019-08-10 01:00:00 24.1 12 Noroeste 22 Noroeste 0 -- -- 53
2019-08-10 00:00:00 24.7 10 Noroeste 21 Noroeste 0 -- -- 51
2019-08-09 23:00:00 26 16 Noroeste 26 Noroeste 0 -- -- 46
2019-08-09 22:00:00 28.1 13 Noroeste 20 Noroeste 0 -- -- 40
2019-08-09 21:00:00 29.9 6 Este 13 Sur 0 -- -- 35
2019-08-09 20:00:00 31.5 5 Sur 17 Sudeste 0 -- -- 31
2019-08-09 19:00:00 33.1 9 Sur 23 Sur 0 -- -- 28
2019-08-09 18:00:00 33.4 12 Sur 30 Sur 0 -- -- 29
2019-08-09 17:00:00 34 15 Sur 31 Sudoeste 0 -- -- 28
2019-08-09 16:00:00 34.3 12 Sur 28 Sudoeste 0 -- -- 27
2019-08-09 15:00:00 34 12 Sudeste 27 Sur 0 -- -- 24
2019-08-09 14:00:00 33.2 12 Sur 33 Sudoeste 0 -- -- 26
2019-08-09 13:00:00 32.7 9 Sudeste 25 Este 0 -- -- 29
2019-08-09 12:00:00 31.2 9 Sur 15 Sudoeste 0 -- -- 41
2019-08-09 11:00:00 27.8 4 Este 23 Noroeste 0 -- -- 49
2019-08-09 10:00:00 22.4 17 Noroeste 34 Noroeste 0 -- -- 62
2019-08-09 09:00:00 20 24 Noroeste 44 Noroeste 0 -- -- 71
2019-08-09 08:00:00 18.5 25 Noroeste 41 Noroeste 0 -- -- 77
2019-08-09 07:00:00 19 25 Noroeste 46 Noroeste 0 -- -- 75
2019-08-09 06:00:00 19.7 32 Noroeste 47 Noroeste 0 -- -- 72
2019-08-09 05:00:00 20 34 Noroeste 45 Noroeste 0 -- -- 71
2019-08-09 04:00:00 20.2 35 Noroeste 46 Noroeste 0 -- -- 71
2019-08-09 03:00:00 20.7 30 Noroeste 43 Noroeste 0 -- -- 68
2019-08-09 02:00:00 21.3 29 Noroeste 37 Noroeste 0 -- -- 67
2019-08-09 01:00:00 22 26 Noroeste 36 Noroeste 0 -- -- 64
2019-08-09 00:00:00 22.9 19 Noroeste 30 Noroeste 0 -- -- 62
2019-08-08 23:00:00 24.3 15 Noroeste 26 Noroeste 0 -- -- 57
2019-08-08 22:00:00 26 19 Noroeste 24 Noroeste 0 -- -- 51
2019-08-08 21:00:00 27.8 4 Este 8 Oeste 0 -- -- 45
2019-08-08 20:00:00 29 4 Este 15 Sur 0 -- -- 40
2019-08-08 19:00:00 30.4 8 Sur 20 Sur 0 -- -- 38
2019-08-08 18:00:00 31.2 6 Oeste 25 Sudoeste 0 -- -- 38
2019-08-08 17:00:00 31.8 10 Sur 22 Sur 0 -- -- 38
2019-08-08 16:00:00 31.5 11 Sur 25 Sur 0 -- -- 37
2019-08-08 15:00:00 31 13 Sur 27 Sur 0 -- -- 37
2019-08-08 14:00:00 29.7 14 Sur 21 Sudoeste 0 -- -- 42
2019-08-08 13:00:00 29.2 6 Sur 16 Este 0 -- -- 45
2019-08-08 12:00:00 27.3 6 Sudeste 13 Sudeste 0 -- -- 51
2019-08-08 11:00:00 22.2 11 Noroeste 27 Noroeste 0 -- -- 70
2019-08-08 10:00:00 19.4 17 Noroeste 32 Noroeste 0 -- -- 80
2019-08-08 09:00:00 18.3 22 Noroeste 35 Noroeste 0 -- -- 84
2019-08-08 08:00:00 17.7 25 Noroeste 36 Noroeste 0 -- -- 87
2019-08-08 07:00:00 17.7 23 Noroeste 35 Noroeste 0 -- -- 87
2019-08-08 06:00:00 18.2 21 Noroeste 36 Noroeste 0 -- -- 85
2019-08-08 05:00:00 18.1 23 Noroeste 39 Noroeste 0 -- -- 87
2019-08-08 04:00:00 18.3 23 Noroeste 35 Noroeste 0 -- -- 86
2019-08-08 03:00:00 18.4 23 Noroeste 34 Noroeste 0 -- -- 86
2019-08-08 02:00:00 18.6 23 Noroeste 37 Noroeste 0 -- -- 87
2019-08-08 01:00:00 18.9 18 Noroeste 33 Noroeste 0 -- -- 84
2019-08-08 00:00:00 18.8 19 Noroeste 32 Noroeste 0 -- -- 87
2019-08-07 23:00:00 19.2 20 Noroeste 34 Noroeste 0 -- -- 85
2019-08-07 22:00:00 19.5 23 Noroeste 37 Noroeste 0 -- -- 84
2019-08-07 21:00:00 20 17 Noroeste 36 Noroeste 0 -- -- 79
2019-08-07 20:00:00 20 24 Noroeste 39 Noroeste 0 -- -- 79
2019-08-07 19:00:00 19.3 22 Noroeste 36 Noroeste 1.8 -- -- 83
2019-08-07 18:00:00 19.5 24 Noroeste 35 Noroeste 1 -- -- 82
2019-08-07 17:00:00 19.4 7 Sudoeste 21 Sudoeste 0 -- -- 85
2019-08-07 16:00:00 19.5 8 Este 51 Noroeste 5 -- -- 77
2019-08-07 15:00:00 28.7 13 Sur 33 Sur 0 -- -- 45
2019-08-07 14:00:00 29.3 11 Sur 28 Sur 0 -- -- 46
2019-08-07 13:00:00 29.8 8 Sur 23 Sur 0 -- -- 45
2019-08-07 12:00:00 28.9 13 Sur 20 Sudoeste 0 -- -- 49
2019-08-07 11:00:00 26.8 6 Nordeste 16 Nordeste 0 -- -- 56
2019-08-07 10:00:00 22.1 9 Noroeste 20 Noroeste 0 -- -- 59
2019-08-07 09:00:00 20 12 Noroeste 28 Noroeste 0 -- -- 63
2019-08-07 08:00:00 18.6 20 Noroeste 39 Noroeste 0 -- -- 66
2019-08-07 07:00:00 18.8 19 Noroeste 37 Noroeste 0 -- -- 65
2019-08-07 06:00:00 18.9 23 Noroeste 36 Noroeste 0 -- -- 66
2019-08-07 05:00:00 19.7 22 Noroeste 41 Noroeste 0 -- -- 62
2019-08-07 04:00:00 20 24 Noroeste 39 Noroeste 0 -- -- 61
2019-08-07 03:00:00 20.9 24 Noroeste 40 Noroeste 0 -- -- 57
2019-08-07 02:00:00 21.9 27 Noroeste 41 Noroeste 0 -- -- 53
2019-08-07 01:00:00 22.5 28 Noroeste 38 Noroeste 0 -- -- 52
2019-08-07 00:00:00 23.6 20 Noroeste 33 Noroeste 0 -- -- 50
2019-08-06 23:00:00 25 18 Noroeste 27 Noroeste 0 -- -- 44
2019-08-06 22:00:00 26.7 17 Noroeste 24 Noroeste 0 -- -- 43
2019-08-06 21:00:00 28.9 3 Noroeste 10 Sudoeste 0 -- -- 36
2019-08-06 20:00:00 30.3 6 Sur 21 Sur 0 -- -- 32
2019-08-06 19:00:00 31.6 17 Sur 28 Sur 0 -- -- 31
2019-08-06 18:00:00 32.6 15 Sur 27 Sur 0 -- -- 31
2019-08-06 17:00:00 33.1 14 Sur 30 Sudoeste 0 -- -- 26
2019-08-06 16:00:00 34.2 13 Sur 30 Sur 0 -- -- 27
2019-08-06 15:00:00 33 14 Sur 25 Sur 0 -- -- 31
2019-08-06 14:00:00 33.1 13 Sur 26 Sudoeste 0 -- -- 33
2019-08-06 13:00:00 32.8 11 Sur 17 Sur 0 -- -- 34
2019-08-06 12:00:00 30.5 9 Sur 15 Sur 0 -- -- 38
2019-08-06 11:00:00 25.5 10 Noroeste 25 Noroeste 0 -- -- 48
2019-08-06 10:00:00 22 21 Noroeste 33 Noroeste 0 -- -- 57
2019-08-06 09:00:00 19.9 24 Noroeste 37 Noroeste 0 -- -- 64
2019-08-06 08:00:00 18.2 24 Noroeste 43 Noroeste 0 -- -- 71
2019-08-06 07:00:00 18.4 29 Noroeste 40 Noroeste 0 -- -- 72
2019-08-06 06:00:00 19 30 Noroeste 42 Noroeste 0 -- -- 69
2019-08-06 05:00:00 19.6 29 Noroeste 36 Noroeste 0 -- -- 68
2019-08-06 04:00:00 20.7 24 Noroeste 37 Noroeste 0 -- -- 62
2019-08-06 03:00:00 21.8 28 Noroeste 40 Noroeste 0 -- -- 59
2019-08-06 02:00:00 22.5 27 Noroeste 37 Noroeste 0 -- -- 57
2019-08-06 01:00:00 23.6 18 Noroeste 31 Noroeste 0 -- -- 55
2019-08-06 00:00:00 25.1 16 Noroeste 21 Noroeste 0 -- -- 51
2019-08-05 23:00:00 26.9 8 Oeste 22 Sur 0 -- -- 47
2019-08-05 22:00:00 28.9 9 Sudoeste 21 Sur 0 -- -- 40
2019-08-05 21:00:00 29.8 9 Sur 19 Sur 0 -- -- 41
2019-08-05 20:00:00 31.6 7 Sudeste 19 Sur 0 -- -- 27
2019-08-05 19:00:00 33.2 8 Sur 22 Sur 0 -- -- 23
2019-08-05 18:00:00 34 13 Sur 34 Sur 0 -- -- 24
2019-08-05 17:00:00 34.2 9 Sur 33 Sur 0 -- -- 26
2019-08-05 16:00:00 34.1 14 Sur 31 Sudoeste 0 -- -- 29
2019-08-05 15:00:00 33.8 11 Sur 27 Sur 0 -- -- 30
2019-08-05 14:00:00 32.7 6 Sur 23 Sur 0 -- -- 31
2019-08-05 13:00:00 31.8 10 Sur 18 Sudoeste 0 -- -- 34
2019-08-05 12:00:00 30.1 7 Sur 13 Sur 0 -- -- 42
2019-08-05 11:00:00 26.1 5 Norte 26 Noroeste 0 -- -- 51
2019-08-05 10:00:00 21.9 12 Noroeste 32 Noroeste 0 -- -- 62
2019-08-05 09:00:00 19.5 16 Noroeste 41 Noroeste 0 -- -- 71
2019-08-05 08:00:00 18.4 23 Noroeste 36 Noroeste 0 -- -- 75
2019-08-05 07:00:00 18.8 27 Noroeste 37 Noroeste 0 -- -- 73
2019-08-05 06:00:00 19.3 25 Noroeste 41 Noroeste 0 -- -- 72
2019-08-05 05:00:00 19.9 26 Noroeste 38 Noroeste 0 -- -- 70
2019-08-05 04:00:00 20.7 26 Noroeste 36 Noroeste 0 -- -- 67
2019-08-05 03:00:00 21.8 27 Noroeste 40 Noroeste 0 -- -- 63
2019-08-05 02:00:00 22.5 27 Noroeste 36 Noroeste 0 -- -- 62
2019-08-05 01:00:00 23.7 21 Noroeste 29 Noroeste 0 -- -- 58
2019-08-05 00:00:00 25 17 Noroeste 22 Noroeste 0 -- -- 57
2019-08-04 23:00:00 26.1 9 Noroeste 19 Noroeste 0 -- -- 55
2019-08-04 22:00:00 28.2 9 Sur 19 Sur 0 -- -- 48
2019-08-04 21:00:00 29.7 5 Sudeste 28 Sur 0 -- -- 38
2019-08-04 20:00:00 31.4 21 Sur 29 Sur 0 -- -- 30
2019-08-04 19:00:00 32.7 13 Sur 22 Sur 0 -- -- 31
2019-08-04 18:00:00 33.6 11 Sur 29 Sur 0 -- -- 28
2019-08-04 17:00:00 34.1 10 Sur 26 Sudoeste 0 -- -- 25
2019-08-04 16:00:00 34.9 11 Sudeste 32 Sur 0 -- -- 25
2019-08-04 15:00:00 34.6 13 Sur 27 Sur 0 -- -- 30
2019-08-04 14:00:00 33.1 11 Sur 21 Sur 0 -- -- 31
2019-08-04 13:00:00 32.1 8 Sudoeste 18 Sur 0 -- -- 34
2019-08-04 12:00:00 30.6 6 Sudeste 15 Noroeste 0 -- -- 38
2019-08-04 11:00:00 25.1 12 Noroeste 30 Noroeste 0 -- -- 49
2019-08-04 10:00:00 21.8 19 Noroeste 37 Noroeste 0 -- -- 59
2019-08-04 09:00:00 19.4 28 Noroeste 46 Noroeste 0 -- -- 66
2019-08-04 08:00:00 17.9 29 Noroeste 42 Noroeste 0 -- -- 72
2019-08-04 07:00:00 18.1 25 Noroeste 40 Noroeste 0 -- -- 72
2019-08-04 06:00:00 18.8 28 Noroeste 46 Noroeste 0 -- -- 69
2019-08-04 05:00:00 19.1 32 Noroeste 42 Noroeste 0 -- -- 70
2019-08-04 04:00:00 20.1 25 Noroeste 37 Noroeste 0 -- -- 65
2019-08-04 03:00:00 21.2 28 Noroeste 41 Noroeste 0 -- -- 61
2019-08-04 02:00:00 21.8 28 Noroeste 37 Noroeste 0 -- -- 60
2019-08-04 01:00:00 22.9 19 Noroeste 28 Noroeste 0 -- -- 57
2019-08-04 00:00:00 24 16 Noroeste 22 Noroeste 0 -- -- 57
2019-08-03 23:00:00 25.5 9 Noroeste 13 Noroeste 0 -- -- 52
2019-08-03 22:00:00 27 6 Este 18 Sur 0 -- -- 47
2019-08-03 21:00:00 29.2 5 Sur 26 Sudoeste 0 -- -- 39
2019-08-03 20:00:00 30.7 6 Sur 22 Sur 0 -- -- 30
2019-08-03 19:00:00 32.5 10 Sur 25 Sur 0 -- -- 27
2019-08-03 18:00:00 33.1 8 Sur 24 Sudoeste 0 -- -- 28
2019-08-03 17:00:00 33.3 6 Sur 33 Sur 0 -- -- 28
2019-08-03 16:00:00 33.5 9 Sur 26 Sur 0 -- -- 28
2019-08-03 15:00:00 32.7 13 Sur 27 Sur 0 -- -- 31
2019-08-03 14:00:00 32 11 Sudeste 18 Sur 0 -- -- 32
2019-08-03 13:00:00 31.1 7 Sur 15 Sur 0 -- -- 35
2019-08-03 12:00:00 28.3 8 Sur 13 Sur 0 -- -- 42
2019-08-03 11:00:00 24.7 4 Norte 20 Noroeste 0 -- -- 48
2019-08-03 10:00:00 20.3 13 Noroeste 35 Noroeste 0 -- -- 60
2019-08-03 09:00:00 17.9 23 Noroeste 38 Noroeste 0 -- -- 68
2019-08-03 08:00:00 16.2 34 Noroeste 44 Noroeste 0 -- -- 73
2019-08-03 07:00:00 16.4 31 Noroeste 44 Noroeste 0 -- -- 73
2019-08-03 06:00:00 16.9 31 Noroeste 41 Noroeste 0 -- -- 71
2019-08-03 05:00:00 17.3 29 Noroeste 38 Noroeste 0 -- -- 71
2019-08-03 04:00:00 18.2 24 Noroeste 39 Noroeste 0 -- -- 68
2019-08-03 03:00:00 19.2 27 Noroeste 36 Noroeste 0 -- -- 63
2019-08-03 02:00:00 19.7 22 Noroeste 30 Noroeste 0 -- -- 64
2019-08-03 01:00:00 20.8 17 Noroeste 24 Noroeste 0 -- -- 60
2019-08-03 00:00:00 22.1 17 Noroeste 22 Noroeste 0 -- -- 57
2019-08-02 23:00:00 23.8 14 Noroeste 20 Noroeste 0 -- -- 51
2019-08-02 22:00:00 26.4 4 Noroeste 10 Noroeste 0 -- -- 41
2019-08-02 21:00:00 28 3 Sudeste 14 Sudoeste 0 -- -- 37
2019-08-02 20:00:00 28.8 5 Este 20 Sur 0 -- -- 36
2019-08-02 19:00:00 30.2 10 Sur 28 Sur 0 -- -- 36
2019-08-02 18:00:00 31.1 8 Sur 27 Sur 0 -- -- 37
2019-08-02 17:00:00 31.3 11 Sur 33 Sur 0 -- -- 35
2019-08-02 16:00:00 31.7 15 Sur 30 Sudoeste 0 -- -- 31
2019-08-02 15:00:00 31.2 15 Sur 30 Sur 0 -- -- 32
2019-08-02 14:00:00 30.9 9 Sudeste 28 Sur 0 -- -- 31
2019-08-02 13:00:00 29.4 8 Sudeste 20 Sur 0 -- -- 40
2019-08-02 12:00:00 27.6 5 Sudeste 11 Sur 0 -- -- 46
2019-08-02 11:00:00 22 8 Noroeste 26 Noroeste 0 -- -- 63
2019-08-02 10:00:00 19.4 15 Noroeste 32 Noroeste 0 -- -- 72
2019-08-02 09:00:00 17.5 23 Noroeste 38 Noroeste 0 -- -- 80
2019-08-02 08:00:00 16.7 21 Noroeste 33 Noroeste 0 -- -- 85
2019-08-02 07:00:00 17.1 21 Noroeste 38 Noroeste 0 -- -- 82
2019-08-02 06:00:00 17.4 24 Noroeste 36 Noroeste 0 -- -- 81
2019-08-02 05:00:00 18.1 23 Noroeste 36 Noroeste 0.6 -- -- 77
2019-08-02 04:00:00 19.1 27 Noroeste 36 Noroeste 0 -- -- 70
2019-08-02 03:00:00 20.4 7 Noroeste 30 Noroeste 0 -- -- 62
2019-08-02 02:00:00 20.7 16 Noroeste 33 Noroeste 0 -- -- 60
2019-08-02 01:00:00 21.6 14 Noroeste 23 Noroeste 0 -- -- 60
2019-08-02 00:00:00 23.1 15 Noroeste 21 Noroeste 0 -- -- 52
2019-08-01 23:00:00 24.2 12 Noroeste 20 Noroeste 0 -- -- 49
2019-08-01 22:00:00 25.7 3 Sudoeste 11 Noroeste 0 -- -- 45
2019-08-01 21:00:00 27.2 5 Este 15 Oeste 0 -- -- 40
2019-08-01 20:00:00 28.7 3 Este 15 Sudeste 0 -- -- 33
2019-08-01 19:00:00 30.5 8 Sudoeste 23 Sur 0 -- -- 30
2019-08-01 18:00:00 30.7 12 Sur 26 Sur 0 -- -- 28
2019-08-01 17:00:00 31.3 12 Sur 25 Sur 0 -- -- 28
2019-08-01 16:00:00 30.9 4 Noroeste 26 Sudoeste 0 -- -- 30
2019-08-01 15:00:00 30.8 13 Sur 28 Sudoeste 0 -- -- 31
2019-08-01 14:00:00 29.5 13 Sudoeste 27 Sudoeste 0 -- -- 32
2019-08-01 13:00:00 28.5 13 Sudoeste 23 Sudoeste 0 -- -- 37
2019-08-01 12:00:00 28 9 Sur 17 Este 0 -- -- 45
2019-08-01 11:00:00 26.3 10 Sur 15 Sur 0 -- -- 47
2019-08-01 10:00:00 21.4 10 Noroeste 39 Noroeste 0 -- -- 60
2019-08-01 09:00:00 19.5 23 Noroeste 43 Noroeste 0 -- -- 66
2019-08-01 08:00:00 17.8 29 Noroeste 45 Noroeste 0 -- -- 72
2019-08-01 07:00:00 17.4 21 Noroeste 32 Noroeste 0 -- -- 74
2019-08-01 06:00:00 18.2 15 Noroeste 33 Noroeste 0 -- -- 71
2019-08-01 05:00:00 18.6 22 Noroeste 32 Noroeste 0 -- -- 68
2019-08-01 04:00:00 19.1 22 Noroeste 37 Noroeste 0 -- -- 68
2019-08-01 03:00:00 19.3 24 Noroeste 31 Noroeste 0 -- -- 68
2019-08-01 02:00:00 19.9 21 Noroeste 33 Noroeste 0 -- -- 65
2019-08-01 01:00:00 21.1 19 Noroeste 37 Noroeste 0 -- -- 59
2019-08-01 00:00:00 20.6 17 Noroeste 29 Noroeste 0 -- -- 63
2019-07-31 23:00:00 22.2 17 Noroeste 24 Noroeste 0 -- -- 56
2019-07-31 22:00:00 23.7 3 Norte 7 Noroeste 0 -- -- 52
2019-07-31 21:00:00 25.2 3 Sudeste 15 Sur 0 -- -- 46
2019-07-31 20:00:00 26.2 9 Sur 20 Sur 0 -- -- 43
2019-07-31 19:00:00 27.7 9 Sur 21 Sur 0 -- -- 38
2019-07-31 18:00:00 28.3 6 Sudoeste 22 Sudoeste 0 -- -- 37
2019-07-31 17:00:00 29.1 8 Sur 30 Sur 0 -- -- 34
2019-07-31 16:00:00 29.4 18 Sur 29 Sur 0 -- -- 30
2019-07-31 15:00:00 28.5 5 Nordeste 19 Sudoeste 0 -- -- 31
2019-07-31 14:00:00 27.6 9 Sudeste 17 Sur 0 -- -- 32
2019-07-31 13:00:00 25.1 9 Sur 14 Sur 0 -- -- 35
2019-07-31 12:00:00 24 5 Sudeste 11 Sur 0 -- -- 39
2019-07-31 11:00:00 20.1 4 Nordeste 27 Noroeste 0 -- -- 50
2019-07-31 10:00:00 16.4 18 Noroeste 39 Noroeste 0 -- -- 57
2019-07-31 09:00:00 14.2 28 Noroeste 39 Noroeste 0 -- -- 67
2019-07-31 08:00:00 13 30 Noroeste 41 Noroeste 0 -- -- 71
2019-07-31 07:00:00 13 28 Noroeste 41 Noroeste 0 -- -- 70
2019-07-31 06:00:00 13.3 31 Noroeste 44 Noroeste 0 -- -- 71
2019-07-31 05:00:00 13.9 33 Noroeste 42 Noroeste 0 -- -- 68
2019-07-31 04:00:00 14.7 31 Noroeste 42 Noroeste 0 -- -- 65
2019-07-31 03:00:00 15.9 27 Noroeste 41 Noroeste 0 -- -- 59
2019-07-31 02:00:00 16.7 28 Noroeste 35 Noroeste 0 -- -- 58
2019-07-31 01:00:00 18.1 24 Noroeste 31 Noroeste 0 -- -- 53
2019-07-31 00:00:00 19.4 19 Noroeste 26 Noroeste 0 -- -- 49
2019-07-30 23:00:00 20.8 6 Oeste 10 Noroeste 0 -- -- 48
2019-07-30 22:00:00 22.3 4 Sur 11 Este 0 -- -- 38
2019-07-30 21:00:00 24.1 7 Sudeste 18 Sur 0 -- -- 33
2019-07-30 20:00:00 25.3 7 Sudeste 19 Sur 0 -- -- 28
2019-07-30 19:00:00 27.2 8 Oeste 27 Sur 0 -- -- 28
2019-07-30 18:00:00 27.7 9 Sur 31 Sudoeste 0 -- -- 29
2019-07-30 17:00:00 28.1 9 Sur 27 Sudoeste 0 -- -- 31
2019-07-30 16:00:00 27.8 9 Sudeste 23 Sur 0 -- -- 41
2019-07-30 15:00:00 26.4 11 Sur 25 Sur 0 -- -- 47
2019-07-30 14:00:00 26 7 Sur 27 Sur 0 -- -- 50
2019-07-30 13:00:00 26.4 14 Sur 25 Sur 0 -- -- 50
2019-07-30 12:00:00 26.1 16 Sur 24 Sur 0 -- -- 50
2019-07-30 11:00:00 24.5 7 Sur 12 Sur 0 -- -- 54
2019-07-30 10:00:00 22 3 Norte 18 Noroeste 0 -- -- 58
2019-07-30 09:00:00 18.4 12 Noroeste 27 Noroeste 0 -- -- 65
2019-07-30 08:00:00 16.7 18 Noroeste 35 Noroeste 0 -- -- 71
2019-07-30 07:00:00 16.9 19 Noroeste 33 Noroeste 0 -- -- 70
2019-07-30 06:00:00 17.3 21 Noroeste 36 Noroeste 0 -- -- 66
2019-07-30 05:00:00 17.3 26 Noroeste 39 Noroeste 0 -- -- 66
2019-07-30 04:00:00 17.9 25 Noroeste 40 Noroeste 0 -- -- 62
2019-07-30 03:00:00 18.5 21 Noroeste 37 Noroeste 0 -- -- 60
2019-07-30 02:00:00 19 29 Noroeste 39 Noroeste 0 -- -- 58
2019-07-30 01:00:00 19.9 25 Noroeste 34 Noroeste 0 -- -- 54
2019-07-30 00:00:00 20.8 21 Noroeste 33 Noroeste 0 -- -- 52
2019-07-29 23:00:00 22.3 12 Noroeste 31 Noroeste 0 -- -- 48
2019-07-29 22:00:00 24.1 16 Noroeste 22 Noroeste 0 -- -- 41
2019-07-29 21:00:00 26.3 11 Noroeste 17 Noroeste 0 -- -- 37
2019-07-29 20:00:00 28.1 3 Oeste 12 Sur 0 -- -- 31
2019-07-29 19:00:00 29.6 6 Sur 21 Sur 0 -- -- 29
2019-07-29 18:00:00 30.2 8 Sur 23 Sur 0 -- -- 28
2019-07-29 17:00:00 30 6 Sudeste 23 Sur 0 -- -- 29
2019-07-29 16:00:00 30.2 16 Sur 27 Sur 0 -- -- 28
2019-07-29 15:00:00 29.8 8 Sur 24 Sudoeste 0 -- -- 29
2019-07-29 14:00:00 29.4 8 Este 25 Nordeste 0 -- -- 26
2019-07-29 13:00:00 27.5 10 Sur 24 Sur 0 -- -- 29
2019-07-29 12:00:00 26.3 8 Sur 13 Sur 0 -- -- 33
2019-07-29 11:00:00 22.5 4 Este 23 Noroeste 0 -- -- 45
2019-07-29 10:00:00 17.3 17 Noroeste 36 Noroeste 0 -- -- 59
2019-07-29 09:00:00 14.5 27 Noroeste 40 Noroeste 0 -- -- 70
2019-07-29 08:00:00 12.8 31 Noroeste 42 Noroeste 0 -- -- 77
2019-07-29 07:00:00 12.7 31 Noroeste 43 Noroeste 0 -- -- 80
2019-07-29 06:00:00 13.3 34 Noroeste 42 Noroeste 0 -- -- 77
2019-07-29 05:00:00 13.8 31 Noroeste 42 Noroeste 0 -- -- 76
2019-07-29 04:00:00 14.6 30 Noroeste 40 Noroeste 0 -- -- 72
2019-07-29 03:00:00 15.3 23 Noroeste 35 Noroeste 0 -- -- 71
2019-07-29 02:00:00 16.3 26 Noroeste 38 Noroeste 0 -- -- 66
2019-07-29 01:00:00 17.3 25 Noroeste 35 Noroeste 0 -- -- 62
2019-07-29 00:00:00 18.7 14 Noroeste 22 Noroeste 0 -- -- 57
2019-07-28 23:00:00 20.2 0 Calma 6 Sudoeste 0 -- -- 49
2019-07-28 22:00:00 21.7 2 Sudoeste 15 Sudeste 0 -- -- 44
2019-07-28 21:00:00 22.9 7 Sudeste 15 Sur 0 -- -- 40
2019-07-28 20:00:00 24.2 8 Sur 17 Sur 0 -- -- 38
2019-07-28 19:00:00 26.3 10 Sur 19 Sur 0 -- -- 31
2019-07-28 18:00:00 26.7 10 Sur 24 Sudoeste 0 -- -- 30
2019-07-28 17:00:00 27 10 Sur 28 Sur 0 -- -- 29
2019-07-28 16:00:00 27.2 13 Sur 30 Sur 0 -- -- 30
2019-07-28 15:00:00 26.6 12 Sur 21 Sur 0 -- -- 29
2019-07-28 14:00:00 25.6 13 Sur 22 Sur 0 -- -- 31
2019-07-28 13:00:00 24.4 12 Sur 20 Sur 0 -- -- 31
2019-07-28 12:00:00 23.3 11 Sudoeste 17 Sudoeste 0 -- -- 32
2019-07-28 11:00:00 21.8 8 Sur 14 Sur 0 -- -- 40
2019-07-28 10:00:00 18.9 4 Sudeste 22 Oeste 0 -- -- 47
2019-07-28 09:00:00 15.3 3 Este 5 Nordeste 0 -- -- 65
2019-07-28 08:00:00 12.2 0 Calma 24 Noroeste 0 -- -- 74
2019-07-28 07:00:00 13.8 12 Noroeste 25 Noroeste 0 -- -- 66
2019-07-28 06:00:00 13.9 2 Noroeste 27 Noroeste 0 -- -- 66
2019-07-28 05:00:00 14.6 3 Noroeste 13 Sudoeste 0 -- -- 61
2019-07-28 04:00:00 16.8 6 Norte 50 Este 0 -- -- 48
2019-07-28 03:00:00 17.1 20 Este 42 Sudeste 0 -- -- 48
2019-07-28 02:00:00 17.7 13 Norte 40 Noroeste 0 -- -- 48
2019-07-28 01:00:00 17.7 10 Norte 31 Este 0 -- -- 50
2019-07-28 00:00:00 18.5 15 Norte 33 Noroeste 0 -- -- 50
2019-07-27 23:00:00 18.5 10 Oeste 30 Noroeste 0 -- -- 54
2019-07-26 12:00:00 -- -- -- -- -- -- -- -- --
2019-07-26 11:00:00 24.1 14 Noroeste 28 Noroeste 0 -- -- 52
2019-07-26 10:00:00 22.3 21 Noroeste 41 Noroeste 0 -- -- 57
2019-07-26 09:00:00 20.4 26 Norte 46 Noroeste 0 -- -- 61
2019-07-26 08:00:00 19.5 31 Noroeste 42 Noroeste 0 -- -- 66
2019-07-26 07:00:00 19.9 24 Noroeste 44 Noroeste 0 -- -- 62
2019-07-26 06:00:00 20.2 31 Noroeste 41 Noroeste 0 -- -- 61
2019-07-26 05:00:00 20.2 30 Noroeste 40 Noroeste 0 -- -- 60
2019-07-26 04:00:00 20.7 27 Noroeste 36 Noroeste 0 -- -- 59
2019-07-26 03:00:00 21.6 24 Noroeste 32 Noroeste 0 -- -- 57
2019-07-26 02:00:00 22.6 23 Noroeste 32 Noroeste 0 -- -- 55
2019-07-26 01:00:00 23.8 13 Noroeste 26 Noroeste 0 -- -- 52
2019-07-26 00:00:00 24.7 6 Noroeste 31 Noroeste 0 -- -- 50
2019-07-25 23:00:00 26.3 13 Noroeste 24 Noroeste 0 -- -- 45
2019-07-25 22:00:00 27.5 2 Sudoeste 18 Oeste 0 -- -- 43
2019-07-25 21:00:00 29.6 9 Sur 31 Sur 0 -- -- 37
2019-07-25 20:00:00 31.5 17 Sur 31 Sur 0 -- -- 29
2019-07-25 19:00:00 33.8 20 Sur 33 Sur 0 -- -- 26
2019-07-25 18:00:00 34.9 17 Sur 35 Sudoeste 0 -- -- 21
2019-07-25 17:00:00 35.6 12 Sur 31 Sudoeste 0 -- -- 19
2019-07-25 16:00:00 35.6 15 Sur 33 Sudoeste 0 -- -- 20
2019-07-25 15:00:00 35.5 12 Sur 29 Sudoeste 0 -- -- 21
2019-07-25 14:00:00 34.8 14 Sur 29 Sur 0 -- -- 21
2019-07-25 13:00:00 33.3 13 Sudoeste 21 Sudoeste 0 -- -- 25
2019-07-25 12:00:00 33.4 7 Sur 12 Sudeste 0 -- -- 29
2019-07-25 11:00:00 27.1 9 Noroeste 31 Noroeste 0 -- -- 39
2019-07-25 10:00:00 23.2 22 Noroeste 39 Noroeste 0 -- -- 47
2019-07-25 09:00:00 20.6 31 Noroeste 43 Noroeste 0 -- -- 53
2019-07-25 08:00:00 18.5 34 Noroeste 46 Noroeste 0 -- -- 60
2019-07-25 07:00:00 18.8 34 Noroeste 45 Noroeste 0 -- -- 58
2019-07-25 06:00:00 19.5 35 Noroeste 48 Noroeste 0 -- -- 56
2019-07-25 05:00:00 20.2 35 Noroeste 46 Noroeste 0 -- -- 54
2019-07-25 04:00:00 21.2 33 Noroeste 48 Noroeste 0 -- -- 51
2019-07-25 03:00:00 21.9 32 Noroeste 42 Noroeste 0 -- -- 49
2019-07-25 02:00:00 22.9 29 Noroeste 39 Noroeste 0 -- -- 46
2019-07-25 01:00:00 24.2 26 Noroeste 35 Noroeste 0 -- -- 42
2019-07-25 00:00:00 25.7 17 Noroeste 25 Noroeste 0 -- -- 38
2019-07-24 23:00:00 27.8 12 Noroeste 18 Noroeste 0 -- -- 34
2019-07-24 22:00:00 30.6 11 Sudoeste 29 Sudoeste 0 -- -- 29
2019-07-24 21:00:00 32.1 4 Sudeste 14 Sudeste 0 -- -- 21
2019-07-24 20:00:00 33.6 8 Sur 22 Sur 0 -- -- 19
2019-07-24 19:00:00 35.4 14 Sur 31 Sur 0 -- -- 19
2019-07-24 18:00:00 36.3 15 Sur 29 Sur 0 -- -- 17
2019-07-24 17:00:00 36.6 14 Sur 32 Sur 0 -- -- 19
2019-07-24 16:00:00 36.7 12 Sur 26 Sudoeste 0 -- -- 20
2019-07-24 15:00:00 37.2 8 Norte 26 Sur 0 -- -- 17
2019-07-24 14:00:00 36.6 14 Sur 30 Sudeste 0 -- -- 20
2019-07-24 13:00:00 34.8 8 Sur 15 Sur 0 -- -- 21
2019-07-24 12:00:00 33.7 8 Sur 12 Sur 0 -- -- 23
2019-07-24 11:00:00 27.3 8 Noroeste 21 Noroeste 0 -- -- 35
2019-07-24 10:00:00 23.9 14 Norte 36 Noroeste 0 -- -- 42
2019-07-24 09:00:00 20.7 30 Noroeste 45 Noroeste 0 -- -- 49
2019-07-24 08:00:00 18.9 32 Noroeste 48 Noroeste 0 -- -- 54
2019-07-24 07:00:00 18.8 42 Noroeste 54 Noroeste 0 -- -- 54
2019-07-24 06:00:00 20 34 Noroeste 49 Noroeste 0 -- -- 51
2019-07-24 05:00:00 20 35 Noroeste 45 Noroeste 0 -- -- 53
2019-07-24 04:00:00 21 35 Noroeste 48 Noroeste 0 -- -- 49
2019-07-24 03:00:00 21.7 32 Noroeste 41 Noroeste 0 -- -- 47
2019-07-24 02:00:00 22.8 30 Noroeste 39 Noroeste 0 -- -- 44
2019-07-24 01:00:00 24 22 Noroeste 32 Noroeste 0 -- -- 42
2019-07-24 00:00:00 25.7 18 Noroeste 26 Noroeste 0 -- -- 39
2019-07-23 23:00:00 27.8 12 Noroeste 20 Oeste 0 -- -- 35
2019-07-23 22:00:00 30.5 3 Sur 14 Sur 0 -- -- 29
2019-07-23 21:00:00 32.8 3 Sudoeste 18 Sudoeste 0 -- -- 23
2019-07-23 20:00:00 33.9 8 Sur 24 Sudeste 0 -- -- 19
2019-07-23 19:00:00 35.6 12 Sudoeste 21 Sur 0 -- -- 17
2019-07-23 18:00:00 36.7 5 Sudeste 24 Sudoeste 0 -- -- 17
2019-07-23 17:00:00 36.7 10 Sur 26 Sur 0 -- -- 17
2019-07-23 16:00:00 37 9 Sudeste 28 Sudoeste 0 -- -- 17
2019-07-23 15:00:00 37.2 13 Sur 34 Sudeste 0 -- -- 17
2019-07-23 14:00:00 37.5 9 Este 21 Sur 0 -- -- 18
2019-07-23 13:00:00 35.9 14 Este 22 Nordeste 0 -- -- 20
2019-07-23 12:00:00 33.7 7 Sudeste 15 Noroeste 0 -- -- 25
2019-07-23 11:00:00 27.4 11 Norte 28 Noroeste 0 -- -- 34
2019-07-23 10:00:00 23.5 24 Noroeste 44 Noroeste 0 -- -- 42
2019-07-23 09:00:00 20.6 36 Noroeste 51 Noroeste 0 -- -- 49
2019-07-23 08:00:00 18.7 39 Noroeste 55 Noroeste 0 -- -- 54
2019-07-23 07:00:00 18.7 41 Noroeste 55 Noroeste 0 -- -- 55
2019-07-23 06:00:00 19.2 40 Noroeste 51 Noroeste 0 -- -- 53
2019-07-23 05:00:00 20 37 Noroeste 49 Noroeste 0 -- -- 51
2019-07-23 04:00:00 20.7 35 Noroeste 51 Noroeste 0 -- -- 50
2019-07-23 03:00:00 21.1 32 Noroeste 43 Noroeste 0 -- -- 50
2019-07-23 02:00:00 22.4 31 Noroeste 41 Noroeste 0 -- -- 47
2019-07-23 01:00:00 23.6 23 Noroeste 33 Noroeste 0 -- -- 43
2019-07-23 00:00:00 25.2 17 Noroeste 26 Noroeste 0 -- -- 39
2019-07-22 23:00:00 27.2 12 Noroeste 22 Noroeste 0 -- -- 36
2019-07-22 22:00:00 29.3 5 Sudeste 15 Sur 0 -- -- 31
2019-07-22 21:00:00 31.8 6 Sur 16 Sur 0 -- -- 25
2019-07-22 20:00:00 33.2 9 Sur 23 Sur 0 -- -- 20
2019-07-22 19:00:00 34.9 12 Sur 27 Sur 0 -- -- 19
2019-07-22 18:00:00 35.7 15 Sur 28 Sur 0 -- -- 18
2019-07-22 17:00:00 36.2 16 Sur 31 Sur 0 -- -- 20
2019-07-22 16:00:00 36.3 13 Sudeste 32 Sur 0 -- -- 21
2019-07-22 15:00:00 36.2 8 Sudoeste 26 Sudoeste 0 -- -- 22
2019-07-22 14:00:00 35.6 9 Sur 20 Sur 0 -- -- 21
2019-07-22 13:00:00 35 9 Sur 19 Sur 0 -- -- 21
2019-07-22 12:00:00 31.9 10 Sur 15 Noroeste 0 -- -- 26
2019-07-22 11:00:00 27.4 10 Norte 33 Noroeste 0 -- -- 42
2019-07-22 10:00:00 23.9 23 Noroeste 41 Noroeste 0 -- -- 51
2019-07-22 09:00:00 21 32 Noroeste 45 Noroeste 0 -- -- 60
2019-07-22 08:00:00 19.5 34 Noroeste 48 Noroeste 0 -- -- 64
2019-07-22 07:00:00 19.1 36 Noroeste 46 Noroeste 0 -- -- 67
2019-07-22 06:00:00 19.7 32 Noroeste 41 Noroeste 0 -- -- 66
2019-07-22 05:00:00 20.8 30 Noroeste 41 Noroeste 0 -- -- 61
2019-07-22 04:00:00 21.2 30 Noroeste 38 Noroeste 0 -- -- 60
2019-07-22 03:00:00 21.7 30 Noroeste 38 Noroeste 0 -- -- 60
2019-07-22 02:00:00 22.7 18 Noroeste 27 Noroeste 0 -- -- 57
2019-07-22 01:00:00 24 14 Noroeste 27 Noroeste 0 -- -- 52
2019-07-22 00:00:00 25.3 15 Noroeste 25 Noroeste 0 -- -- 49
2019-07-21 23:00:00 26.8 14 Noroeste 18 Noroeste 0 -- -- 44
2019-07-21 22:00:00 28.7 0 Calma 14 Sur 0 -- -- 40
2019-07-21 21:00:00 30.3 11 Sur 17 Sur 0 -- -- 36
2019-07-21 20:00:00 31.8 12 Sur 21 Sur 0 -- -- 29
2019-07-21 19:00:00 33.4 9 Sur 26 Sur 0 -- -- 26
2019-07-21 18:00:00 34 13 Sur 23 Sur 0 -- -- 26
2019-07-21 17:00:00 34.7 8 Sur 32 Sur 0 -- -- 26
2019-07-21 16:00:00 34.6 13 Sur 28 Sudoeste 0 -- -- 26
2019-07-21 15:00:00 34.3 8 Sudeste 27 Sudoeste 0 -- -- 28
2019-07-21 14:00:00 33.9 10 Sudeste 20 Sudoeste 0 -- -- 28
2019-07-21 13:00:00 31.7 10 Sur 21 Sur 0 -- -- 33
2019-07-21 12:00:00 30.4 9 Sur 14 Sur 0 -- -- 34
2019-07-21 11:00:00 25.8 10 Noroeste 22 Noroeste 0 -- -- 48
2019-07-21 10:00:00 22.5 18 Noroeste 34 Noroeste 0 -- -- 57
2019-07-21 09:00:00 20.7 26 Noroeste 42 Noroeste 0 -- -- 64
2019-07-21 08:00:00 19.1 29 Noroeste 41 Noroeste 0 -- -- 71
2019-07-21 07:00:00 19.3 27 Noroeste 41 Noroeste 0 -- -- 69
2019-07-21 06:00:00 19.9 26 Noroeste 38 Noroeste 0 -- -- 68
2019-07-21 05:00:00 20.2 22 Noroeste 36 Noroeste 0 -- -- 68
2019-07-21 04:00:00 20.8 19 Noroeste 31 Noroeste 0 -- -- 66
2019-07-21 03:00:00 21.5 17 Noroeste 29 Noroeste 0 -- -- 64
2019-07-21 02:00:00 22.3 14 Noroeste 21 Noroeste 0 -- -- 61
2019-07-21 01:00:00 23.7 9 Noroeste 22 Noroeste 0 -- -- 56
2019-07-21 00:00:00 24.9 4 Noroeste 8 Noroeste 0 -- -- 52